sensor_id;sensor_type;location;lat;lon;timestamp;temperature;humidity
69208;SHT31;56321;47.662;8.878;2022-07-23T00:02:18;23.46;68.97
69208;SHT31;56321;47.662;8.878;2022-07-23T00:04:44;23.46;69.61
69208;SHT31;56321;47.662;8.878;2022-07-23T00:07:09;23.46;69.74
69208;SHT31;56321;47.662;8.878;2022-07-23T00:09:34;23.45;70.15
69208;SHT31;56321;47.662;8.878;2022-07-23T00:12:00;23.48;70.47
69208;SHT31;56321;47.662;8.878;2022-07-23T00:14:25;23.49;70.68
69208;SHT31;56321;47.662;8.878;2022-07-23T00:16:50;23.49;70.60
69208;SHT31;56321;47.662;8.878;2022-07-23T00:19:16;23.49;70.35
69208;SHT31;56321;47.662;8.878;2022-07-23T00:21:41;23.46;70.16
69208;SHT31;56321;47.662;8.878;2022-07-23T00:24:06;23.42;70.42
69208;SHT31;56321;47.662;8.878;2022-07-23T00:26:32;23.38;70.62
69208;SHT31;56321;47.662;8.878;2022-07-23T00:28:57;23.32;70.86
69208;SHT31;56321;47.662;8.878;2022-07-23T00:31:23;23.31;71.20
69208;SHT31;56321;47.662;8.878;2022-07-23T00:33:48;23.28;71.42
69208;SHT31;56321;47.662;8.878;2022-07-23T00:36:13;23.28;71.65
69208;SHT31;56321;47.662;8.878;2022-07-23T00:38:39;23.26;71.39
69208;SHT31;56321;47.662;8.878;2022-07-23T00:41:04;23.25;70.93
69208;SHT31;56321;47.662;8.878;2022-07-23T00:43:30;23.21;70.99
69208;SHT31;56321;47.662;8.878;2022-07-23T00:45:55;23.16;70.53
69208;SHT31;56321;47.662;8.878;2022-07-23T00:48:20;23.08;70.01
69208;SHT31;56321;47.662;8.878;2022-07-23T00:50:46;23.00;70.69
69208;SHT31;56321;47.662;8.878;2022-07-23T00:53:12;22.97;71.09
69208;SHT31;56321;47.662;8.878;2022-07-23T00:55:38;22.94;71.25
69208;SHT31;56321;47.662;8.878;2022-07-23T00:58:04;22.93;71.30
69208;SHT31;56321;47.662;8.878;2022-07-23T01:00:30;22.86;69.95
69208;SHT31;56321;47.662;8.878;2022-07-23T01:02:55;22.77;69.28
69208;SHT31;56321;47.662;8.878;2022-07-23T01:05:21;22.66;69.04
69208;SHT31;56321;47.662;8.878;2022-07-23T01:07:49;22.60;68.95
69208;SHT31;56321;47.662;8.878;2022-07-23T01:10:14;22.56;69.36
69208;SHT31;56321;47.662;8.878;2022-07-23T01:13:07;22.57;70.96
69208;SHT31;56321;47.662;8.878;2022-07-23T01:15:34;22.60;71.30
69208;SHT31;56321;47.662;8.878;2022-07-23T01:18:00;22.59;71.08
69208;SHT31;56321;47.662;8.878;2022-07-23T01:20:26;22.57;71.17
69208;SHT31;56321;47.662;8.878;2022-07-23T01:22:52;22.56;70.97
69208;SHT31;56321;47.662;8.878;2022-07-23T01:25:18;22.53;70.31
69208;SHT31;56321;47.662;8.878;2022-07-23T01:27:44;22.47;70.16
69208;SHT31;56321;47.662;8.878;2022-07-23T01:30:10;22.42;70.47
69208;SHT31;56321;47.662;8.878;2022-07-23T01:32:35;22.35;70.32
69208;SHT31;56321;47.662;8.878;2022-07-23T01:35:01;22.32;69.66
69208;SHT31;56321;47.662;8.878;2022-07-23T01:37:26;22.26;69.45
69208;SHT31;56321;47.662;8.878;2022-07-23T01:39:52;22.16;69.40
69208;SHT31;56321;47.662;8.878;2022-07-23T01:42:17;22.12;70.05
69208;SHT31;56321;47.662;8.878;2022-07-23T01:44:42;22.12;70.84
69208;SHT31;56321;47.662;8.878;2022-07-23T01:47:08;22.09;70.70
69208;SHT31;56321;47.662;8.878;2022-07-23T01:49:33;22.06;69.72
69208;SHT31;56321;47.662;8.878;2022-07-23T01:51:58;22.02;69.26
69208;SHT31;56321;47.662;8.878;2022-07-23T01:54:30;21.92;69.19
69208;SHT31;56321;47.662;8.878;2022-07-23T01:56:57;21.88;70.24
69208;SHT31;56321;47.662;8.878;2022-07-23T01:59:23;21.89;70.56
69208;SHT31;56321;47.662;8.878;2022-07-23T02:01:49;21.88;70.63
69208;SHT31;56321;47.662;8.878;2022-07-23T02:04:18;21.87;70.77
69208;SHT31;56321;47.662;8.878;2022-07-23T02:06:43;21.82;70.68
69208;SHT31;56321;47.662;8.878;2022-07-23T02:09:09;21.85;70.76
69208;SHT31;56321;47.662;8.878;2022-07-23T02:11:34;21.85;71.21
69208;SHT31;56321;47.662;8.878;2022-07-23T02:14:00;21.82;71.27
69208;SHT31;56321;47.662;8.878;2022-07-23T02:16:25;21.84;71.49
69208;SHT31;56321;47.662;8.878;2022-07-23T02:18:50;21.84;71.35
69208;SHT31;56321;47.662;8.878;2022-07-23T02:21:16;21.82;70.93
69208;SHT31;56321;47.662;8.878;2022-07-23T02:23:41;21.82;70.53
69208;SHT31;56321;47.662;8.878;2022-07-23T02:26:06;21.81;70.86
69208;SHT31;56321;47.662;8.878;2022-07-23T02:28:32;21.79;70.70
69208;SHT31;56321;47.662;8.878;2022-07-23T02:30:57;21.78;71.63
69208;SHT31;56321;47.662;8.878;2022-07-23T02:33:23;21.78;71.94
69208;SHT31;56321;47.662;8.878;2022-07-23T02:35:48;21.81;71.92
69208;SHT31;56321;47.662;8.878;2022-07-23T02:38:14;21.82;71.54
69208;SHT31;56321;47.662;8.878;2022-07-23T02:40:39;21.78;71.05
69208;SHT31;56321;47.662;8.878;2022-07-23T02:43:04;21.79;70.77
69208;SHT31;56321;47.662;8.878;2022-07-23T02:45:30;21.77;71.34
69208;SHT31;56321;47.662;8.878;2022-07-23T02:47:55;21.79;71.74
69208;SHT31;56321;47.662;8.878;2022-07-23T02:50:20;21.78;71.68
69208;SHT31;56321;47.662;8.878;2022-07-23T02:52:46;21.77;71.55
69208;SHT31;56321;47.662;8.878;2022-07-23T02:55:11;21.74;71.19
69208;SHT31;56321;47.662;8.878;2022-07-23T02:57:37;21.74;71.84
69208;SHT31;56321;47.662;8.878;2022-07-23T03:00:04;21.77;72.21
69208;SHT31;56321;47.662;8.878;2022-07-23T03:02:30;21.78;72.33
69208;SHT31;56321;47.662;8.878;2022-07-23T03:04:55;21.79;71.97
69208;SHT31;56321;47.662;8.878;2022-07-23T03:07:20;21.73;72.21
69208;SHT31;56321;47.662;8.878;2022-07-23T03:09:46;21.64;72.56
69208;SHT31;56321;47.662;8.878;2022-07-23T03:12:12;21.61;72.72
69208;SHT31;56321;47.662;8.878;2022-07-23T03:14:37;21.58;72.82
69208;SHT31;56321;47.662;8.878;2022-07-23T03:17:03;21.58;73.31
69208;SHT31;56321;47.662;8.878;2022-07-23T03:19:28;21.58;74.08
69208;SHT31;56321;47.662;8.878;2022-07-23T03:21:54;21.60;74.04
69208;SHT31;56321;47.662;8.878;2022-07-23T03:24:19;21.62;74.38
69208;SHT31;56321;47.662;8.878;2022-07-23T03:26:44;21.62;74.04
69208;SHT31;56321;47.662;8.878;2022-07-23T03:29:10;21.64;74.10
69208;SHT31;56321;47.662;8.878;2022-07-23T03:31:35;21.67;74.33
69208;SHT31;56321;47.662;8.878;2022-07-23T03:34:01;21.70;74.12
69208;SHT31;56321;47.662;8.878;2022-07-23T03:36:26;21.67;74.34
69208;SHT31;56321;47.662;8.878;2022-07-23T03:38:52;21.68;74.52
69208;SHT31;56321;47.662;8.878;2022-07-23T03:41:19;21.70;74.54
69208;SHT31;56321;47.662;8.878;2022-07-23T03:43:44;21.71;74.67
69208;SHT31;56321;47.662;8.878;2022-07-23T03:46:10;21.71;74.67
69208;SHT31;56321;47.662;8.878;2022-07-23T03:48:35;21.71;74.68
69208;SHT31;56321;47.662;8.878;2022-07-23T03:51:01;21.71;74.81
69208;SHT31;56321;47.662;8.878;2022-07-23T03:53:26;21.71;74.77
69208;SHT31;56321;47.662;8.878;2022-07-23T03:55:51;21.73;75.11
69208;SHT31;56321;47.662;8.878;2022-07-23T03:58:17;21.73;75.16
69208;SHT31;56321;47.662;8.878;2022-07-23T04:00:42;21.73;75.24
69208;SHT31;56321;47.662;8.878;2022-07-23T04:03:08;21.74;75.21
69208;SHT31;56321;47.662;8.878;2022-07-23T04:05:33;21.75;75.30
69208;SHT31;56321;47.662;8.878;2022-07-23T04:07:58;21.78;75.28
69208;SHT31;56321;47.662;8.878;2022-07-23T04:10:24;21.75;75.20
69208;SHT31;56321;47.662;8.878;2022-07-23T04:12:49;21.78;75.26
69208;SHT31;56321;47.662;8.878;2022-07-23T04:15:15;21.79;75.36
69208;SHT31;56321;47.662;8.878;2022-07-23T04:17:40;21.82;75.45
69208;SHT31;56321;47.662;8.878;2022-07-23T04:20:06;21.81;75.24
69208;SHT31;56321;47.662;8.878;2022-07-23T04:22:31;21.78;74.72
69208;SHT31;56321;47.662;8.878;2022-07-23T04:24:56;21.74;74.15
69208;SHT31;56321;47.662;8.878;2022-07-23T04:27:22;21.68;74.47
69208;SHT31;56321;47.662;8.878;2022-07-23T04:29:47;21.67;75.19
69208;SHT31;56321;47.662;8.878;2022-07-23T04:32:12;21.65;74.86
69208;SHT31;56321;47.662;8.878;2022-07-23T04:34:38;21.62;75.08
69208;SHT31;56321;47.662;8.878;2022-07-23T04:37:03;21.64;75.19
69208;SHT31;56321;47.662;8.878;2022-07-23T04:39:28;21.58;75.54
69208;SHT31;56321;47.662;8.878;2022-07-23T04:41:54;21.60;75.65
69208;SHT31;56321;47.662;8.878;2022-07-23T04:44:19;21.60;75.73
69208;SHT31;56321;47.662;8.878;2022-07-23T04:46:45;21.61;75.80
69208;SHT31;56321;47.662;8.878;2022-07-23T04:49:10;21.61;75.49
69208;SHT31;56321;47.662;8.878;2022-07-23T04:51:36;21.58;75.24
69208;SHT31;56321;47.662;8.878;2022-07-23T04:54:01;21.51;75.52
69208;SHT31;56321;47.662;8.878;2022-07-23T04:56:26;21.51;76.18
69208;SHT31;56321;47.662;8.878;2022-07-23T04:58:52;21.53;76.52
69208;SHT31;56321;47.662;8.878;2022-07-23T05:01:17;21.57;76.51
69208;SHT31;56321;47.662;8.878;2022-07-23T05:03:42;21.61;76.91
69208;SHT31;56321;47.662;8.878;2022-07-23T05:06:08;21.62;77.22
69208;SHT31;56321;47.662;8.878;2022-07-23T05:08:33;21.68;77.14
69208;SHT31;56321;47.662;8.878;2022-07-23T05:10:59;21.65;76.93
69208;SHT31;56321;47.662;8.878;2022-07-23T05:13:24;21.65;76.58
69208;SHT31;56321;47.662;8.878;2022-07-23T05:15:50;21.62;76.82
69208;SHT31;56321;47.662;8.878;2022-07-23T05:18:15;21.65;77.14
69208;SHT31;56321;47.662;8.878;2022-07-23T05:20:40;21.64;76.82
69208;SHT31;56321;47.662;8.878;2022-07-23T05:23:06;21.62;76.60
69208;SHT31;56321;47.662;8.878;2022-07-23T05:25:32;21.57;76.66
69208;SHT31;56321;47.662;8.878;2022-07-23T05:27:57;21.57;77.15
69208;SHT31;56321;47.662;8.878;2022-07-23T05:30:22;21.57;77.20
69208;SHT31;56321;47.662;8.878;2022-07-23T05:32:48;21.57;77.09
69208;SHT31;56321;47.662;8.878;2022-07-23T05:35:13;21.58;77.03
69208;SHT31;56321;47.662;8.878;2022-07-23T05:37:38;21.58;77.33
69208;SHT31;56321;47.662;8.878;2022-07-23T05:40:07;21.61;77.66
69208;SHT31;56321;47.662;8.878;2022-07-23T05:42:39;21.62;77.09
69208;SHT31;56321;47.662;8.878;2022-07-23T05:45:06;21.65;77.13
69208;SHT31;56321;47.662;8.878;2022-07-23T05:47:45;21.61;77.05
69208;SHT31;56321;47.662;8.878;2022-07-23T05:50:11;21.64;77.13
69208;SHT31;56321;47.662;8.878;2022-07-23T05:52:38;21.64;77.05
69208;SHT31;56321;47.662;8.878;2022-07-23T05:55:04;21.65;76.86
69208;SHT31;56321;47.662;8.878;2022-07-23T05:57:29;21.64;77.19
69208;SHT31;56321;47.662;8.878;2022-07-23T05:59:55;21.65;77.38
69208;SHT31;56321;47.662;8.878;2022-07-23T06:02:20;21.65;77.05
69208;SHT31;56321;47.662;8.878;2022-07-23T06:04:45;21.68;76.91
69208;SHT31;56321;47.662;8.878;2022-07-23T06:07:11;21.70;76.79
69208;SHT31;56321;47.662;8.878;2022-07-23T06:09:36;21.73;76.91
69208;SHT31;56321;47.662;8.878;2022-07-23T06:12:02;21.71;76.66
69208;SHT31;56321;47.662;8.878;2022-07-23T06:14:27;21.71;76.70
69208;SHT31;56321;47.662;8.878;2022-07-23T06:16:53;21.71;77.13
69208;SHT31;56321;47.662;8.878;2022-07-23T06:19:18;21.70;77.42
69208;SHT31;56321;47.662;8.878;2022-07-23T06:21:44;21.74;77.48
69208;SHT31;56321;47.662;8.878;2022-07-23T06:24:09;21.81;77.36
69208;SHT31;56321;47.662;8.878;2022-07-23T06:26:34;21.85;77.04
69208;SHT31;56321;47.662;8.878;2022-07-23T06:29:00;21.89;76.96
69208;SHT31;56321;47.662;8.878;2022-07-23T06:31:25;21.91;76.92
69208;SHT31;56321;47.662;8.878;2022-07-23T06:33:51;21.88;76.49
69208;SHT31;56321;47.662;8.878;2022-07-23T06:36:16;21.82;76.67
69208;SHT31;56321;47.662;8.878;2022-07-23T06:38:41;21.78;76.68
69208;SHT31;56321;47.662;8.878;2022-07-23T06:41:07;21.78;76.83
69208;SHT31;56321;47.662;8.878;2022-07-23T06:43:32;21.82;77.61
69208;SHT31;56321;47.662;8.878;2022-07-23T06:45:57;21.85;77.17
69208;SHT31;56321;47.662;8.878;2022-07-23T06:48:23;21.88;77.85
69208;SHT31;56321;47.662;8.878;2022-07-23T06:50:49;21.97;78.19
69208;SHT31;56321;47.662;8.878;2022-07-23T06:53:17;22.04;78.70
69208;SHT31;56321;47.662;8.878;2022-07-23T06:55:43;22.10;78.67
69208;SHT31;56321;47.662;8.878;2022-07-23T06:58:08;22.18;78.76
69208;SHT31;56321;47.662;8.878;2022-07-23T07:00:35;22.22;78.27
69208;SHT31;56321;47.662;8.878;2022-07-23T07:03:01;22.26;78.09
69208;SHT31;56321;47.662;8.878;2022-07-23T07:05:26;22.28;78.03
69208;SHT31;56321;47.662;8.878;2022-07-23T07:07:56;22.32;78.00
69208;SHT31;56321;47.662;8.878;2022-07-23T07:10:21;22.35;77.71
69208;SHT31;56321;47.662;8.878;2022-07-23T07:12:47;22.33;77.34
69208;SHT31;56321;47.662;8.878;2022-07-23T07:15:12;22.32;77.43
69208;SHT31;56321;47.662;8.878;2022-07-23T07:17:38;22.30;77.52
69208;SHT31;56321;47.662;8.878;2022-07-23T07:20:05;22.30;77.68
69208;SHT31;56321;47.662;8.878;2022-07-23T07:22:30;22.29;77.84
69208;SHT31;56321;47.662;8.878;2022-07-23T07:24:56;22.28;77.59
69208;SHT31;56321;47.662;8.878;2022-07-23T07:27:21;22.25;77.25
69208;SHT31;56321;47.662;8.878;2022-07-23T07:29:46;22.16;76.27
69208;SHT31;56321;47.662;8.878;2022-07-23T07:32:12;22.12;76.92
69208;SHT31;56321;47.662;8.878;2022-07-23T07:34:37;22.13;77.19
69208;SHT31;56321;47.662;8.878;2022-07-23T07:37:02;22.13;77.22
69208;SHT31;56321;47.662;8.878;2022-07-23T07:39:28;22.19;77.09
69208;SHT31;56321;47.662;8.878;2022-07-23T07:41:53;22.20;76.82
69208;SHT31;56321;47.662;8.878;2022-07-23T07:44:18;22.28;76.88
69208;SHT31;56321;47.662;8.878;2022-07-23T07:46:44;22.33;77.48
69208;SHT31;56321;47.662;8.878;2022-07-23T07:49:09;22.40;77.35
69208;SHT31;56321;47.662;8.878;2022-07-23T07:51:35;22.45;76.82
69208;SHT31;56321;47.662;8.878;2022-07-23T07:54:01;22.50;76.40
69208;SHT31;56321;47.662;8.878;2022-07-23T07:56:26;22.54;76.46
69208;SHT31;56321;47.662;8.878;2022-07-23T07:58:51;22.53;76.19
69208;SHT31;56321;47.662;8.878;2022-07-23T08:01:17;22.56;76.75
69208;SHT31;56321;47.662;8.878;2022-07-23T08:03:44;22.53;76.98
69208;SHT31;56321;47.662;8.878;2022-07-23T08:06:09;22.54;77.18
69208;SHT31;56321;47.662;8.878;2022-07-23T08:08:35;22.54;77.47
69208;SHT31;56321;47.662;8.878;2022-07-23T08:11:00;22.53;77.82
69208;SHT31;56321;47.662;8.878;2022-07-23T08:13:25;22.50;78.25
69208;SHT31;56321;47.662;8.878;2022-07-23T08:15:51;22.56;78.20
69208;SHT31;56321;47.662;8.878;2022-07-23T08:18:18;22.57;76.67
69208;SHT31;56321;47.662;8.878;2022-07-23T08:20:44;22.54;76.98
69208;SHT31;56321;47.662;8.878;2022-07-23T08:23:09;22.53;76.67
69208;SHT31;56321;47.662;8.878;2022-07-23T08:25:38;22.53;77.14
69208;SHT31;56321;47.662;8.878;2022-07-23T08:28:06;22.59;77.68
69208;SHT31;56321;47.662;8.878;2022-07-23T08:30:33;22.60;77.78
69208;SHT31;56321;47.662;8.878;2022-07-23T08:33:03;22.61;77.89
69208;SHT31;56321;47.662;8.878;2022-07-23T08:35:38;22.66;77.62
69208;SHT31;56321;47.662;8.878;2022-07-23T08:38:06;22.64;77.58
69208;SHT31;56321;47.662;8.878;2022-07-23T08:40:34;22.66;77.79
69208;SHT31;56321;47.662;8.878;2022-07-23T08:43:00;22.66;77.99
69208;SHT31;56321;47.662;8.878;2022-07-23T08:45:28;22.64;77.98
69208;SHT31;56321;47.662;8.878;2022-07-23T08:47:57;22.64;78.03
69208;SHT31;56321;47.662;8.878;2022-07-23T08:50:26;22.66;77.96
69208;SHT31;56321;47.662;8.878;2022-07-23T08:52:53;22.67;78.35
69208;SHT31;56321;47.662;8.878;2022-07-23T08:55:20;22.68;78.33
69208;SHT31;56321;47.662;8.878;2022-07-23T08:57:50;22.71;78.54
69208;SHT31;56321;47.662;8.878;2022-07-23T09:00:16;22.71;78.52
69208;SHT31;56321;47.662;8.878;2022-07-23T09:02:44;22.75;78.74
69208;SHT31;56321;47.662;8.878;2022-07-23T09:05:10;22.80;79.03
69208;SHT31;56321;47.662;8.878;2022-07-23T09:07:37;22.86;78.82
69208;SHT31;56321;47.662;8.878;2022-07-23T09:10:09;22.87;77.89
69208;SHT31;56321;47.662;8.878;2022-07-23T09:12:35;22.87;77.57
69208;SHT31;56321;47.662;8.878;2022-07-23T09:15:09;22.93;77.97
69208;SHT31;56321;47.662;8.878;2022-07-23T09:17:40;22.93;76.89
69208;SHT31;56321;47.662;8.878;2022-07-23T09:20:12;22.91;78.18
69208;SHT31;56321;47.662;8.878;2022-07-23T09:22:38;22.90;78.03
69208;SHT31;56321;47.662;8.878;2022-07-23T09:25:16;22.93;78.03
69208;SHT31;56321;47.662;8.878;2022-07-23T09:28:00;22.91;78.04
69208;SHT31;56321;47.662;8.878;2022-07-23T09:30:30;22.93;77.97
69208;SHT31;56321;47.662;8.878;2022-07-23T09:33:13;22.94;78.65
69208;SHT31;56321;47.662;8.878;2022-07-23T09:35:46;22.97;78.47
69208;SHT31;56321;47.662;8.878;2022-07-23T09:38:12;23.00;78.32
69208;SHT31;56321;47.662;8.878;2022-07-23T09:40:37;23.00;77.14
69208;SHT31;56321;47.662;8.878;2022-07-23T09:43:03;23.00;76.69
69208;SHT31;56321;47.662;8.878;2022-07-23T09:45:28;23.00;77.01
69208;SHT31;56321;47.662;8.878;2022-07-23T09:48:10;23.05;77.43
69208;SHT31;56321;47.662;8.878;2022-07-23T09:50:36;23.14;76.95
69208;SHT31;56321;47.662;8.878;2022-07-23T09:53:02;23.16;76.52
69208;SHT31;56321;47.662;8.878;2022-07-23T09:55:32;23.26;76.90
69208;SHT31;56321;47.662;8.878;2022-07-23T09:58:06;23.32;76.85
69208;SHT31;56321;47.662;8.878;2022-07-23T10:00:38;23.41;77.20
69208;SHT31;56321;47.662;8.878;2022-07-23T10:03:05;23.48;77.71
69208;SHT31;56321;47.662;8.878;2022-07-23T10:05:32;23.53;76.66
69208;SHT31;56321;47.662;8.878;2022-07-23T10:08:01;23.55;76.56
69208;SHT31;56321;47.662;8.878;2022-07-23T10:10:27;23.60;76.64
69208;SHT31;56321;47.662;8.878;2022-07-23T10:12:55;23.65;76.22
69208;SHT31;56321;47.662;8.878;2022-07-23T10:15:20;23.67;75.98
69208;SHT31;56321;47.662;8.878;2022-07-23T10:17:46;23.69;76.13
69208;SHT31;56321;47.662;8.878;2022-07-23T10:20:11;23.70;75.70
69208;SHT31;56321;47.662;8.878;2022-07-23T10:22:40;23.71;75.39
69208;SHT31;56321;47.662;8.878;2022-07-23T10:30:39;23.67;75.13
69208;SHT31;56321;47.662;8.878;2022-07-23T10:41:40;23.45;74.81
69208;SHT31;56321;47.662;8.878;2022-07-23T10:44:13;23.43;74.53
69208;SHT31;56321;47.662;8.878;2022-07-23T10:46:58;23.39;75.45
69208;SHT31;56321;47.662;8.878;2022-07-23T10:49:53;23.41;75.56
69208;SHT31;56321;47.662;8.878;2022-07-23T10:52:25;23.48;75.30
69208;SHT31;56321;47.662;8.878;2022-07-23T10:57:27;23.71;75.10
69208;SHT31;56321;47.662;8.878;2022-07-23T11:02:31;23.88;74.62
69208;SHT31;56321;47.662;8.878;2022-07-23T11:05:03;23.87;73.89
69208;SHT31;56321;47.662;8.878;2022-07-23T11:07:29;23.86;73.86
69208;SHT31;56321;47.662;8.878;2022-07-23T11:09:55;23.80;74.00
69208;SHT31;56321;47.662;8.878;2022-07-23T11:15:11;23.83;75.13
69208;SHT31;56321;47.662;8.878;2022-07-23T11:22:37;23.77;74.58
69208;SHT31;56321;47.662;8.878;2022-07-23T11:25:03;23.71;75.21
69208;SHT31;56321;47.662;8.878;2022-07-23T11:27:43;23.67;75.06
69208;SHT31;56321;47.662;8.878;2022-07-23T11:32:54;23.65;75.13
69208;SHT31;56321;47.662;8.878;2022-07-23T11:35:44;23.56;75.12
69208;SHT31;56321;47.662;8.878;2022-07-23T11:38:25;23.60;75.01
69208;SHT31;56321;47.662;8.878;2022-07-23T11:40:54;23.58;75.25
69208;SHT31;56321;47.662;8.878;2022-07-23T11:43:21;23.58;75.76
69208;SHT31;56321;47.662;8.878;2022-07-23T11:45:49;23.66;76.14
69208;SHT31;56321;47.662;8.878;2022-07-23T11:48:20;23.84;76.39
69208;SHT31;56321;47.662;8.878;2022-07-23T11:50:47;24.04;75.53
69208;SHT31;56321;47.662;8.878;2022-07-23T11:53:13;24.31;75.63
69208;SHT31;56321;47.662;8.878;2022-07-23T11:55:38;24.55;75.31
69208;SHT31;56321;47.662;8.878;2022-07-23T11:58:05;24.86;74.66
69208;SHT31;56321;47.662;8.878;2022-07-23T12:00:31;25.16;76.55
69208;SHT31;56321;47.662;8.878;2022-07-23T12:02:58;25.42;73.61
69208;SHT31;56321;47.662;8.878;2022-07-23T12:05:31;25.54;72.92
69208;SHT31;56321;47.662;8.878;2022-07-23T12:07:57;25.65;72.05
69208;SHT31;56321;47.662;8.878;2022-07-23T12:12:55;25.74;71.24
69208;SHT31;56321;47.662;8.878;2022-07-23T12:15:45;25.76;72.54
69208;SHT31;56321;47.662;8.878;2022-07-23T12:18:12;25.86;71.12
69208;SHT31;56321;47.662;8.878;2022-07-23T12:20:45;25.90;70.42
69208;SHT31;56321;47.662;8.878;2022-07-23T12:23:16;26.00;70.48
69208;SHT31;56321;47.662;8.878;2022-07-23T12:25:43;26.15;69.80
69208;SHT31;56321;47.662;8.878;2022-07-23T12:28:13;26.29;71.26
69208;SHT31;56321;47.662;8.878;2022-07-23T12:30:50;26.32;69.10
69208;SHT31;56321;47.662;8.878;2022-07-23T12:33:23;26.37;68.91
69208;SHT31;56321;47.662;8.878;2022-07-23T12:35:49;26.43;68.00
69208;SHT31;56321;47.662;8.878;2022-07-23T12:38:16;26.51;68.56
69208;SHT31;56321;47.662;8.878;2022-07-23T12:40:49;26.64;69.70
69208;SHT31;56321;47.662;8.878;2022-07-23T12:43:29;26.71;68.54
69208;SHT31;56321;47.662;8.878;2022-07-23T12:46:04;26.75;68.53
69208;SHT31;56321;47.662;8.878;2022-07-23T12:48:33;26.80;67.94
69208;SHT31;56321;47.662;8.878;2022-07-23T12:51:13;26.87;66.11
69208;SHT31;56321;47.662;8.878;2022-07-23T12:53:50;26.88;65.90
69208;SHT31;56321;47.662;8.878;2022-07-23T12:56:18;26.90;67.57
69208;SHT31;56321;47.662;8.878;2022-07-23T12:58:58;26.94;65.80
69208;SHT31;56321;47.662;8.878;2022-07-23T13:01:35;27.06;66.21
69208;SHT31;56321;47.662;8.878;2022-07-23T13:04:09;27.13;66.61
69208;SHT31;56321;47.662;8.878;2022-07-23T13:06:41;27.19;65.26
69208;SHT31;56321;47.662;8.878;2022-07-23T13:09:09;27.18;65.04
69208;SHT31;56321;47.662;8.878;2022-07-23T13:11:35;27.16;63.79
69208;SHT31;56321;47.662;8.878;2022-07-23T13:14:01;27.10;64.24
69208;SHT31;56321;47.662;8.878;2022-07-23T13:16:27;27.06;65.38
69208;SHT31;56321;47.662;8.878;2022-07-23T13:18:53;27.09;67.23
69208;SHT31;56321;47.662;8.878;2022-07-23T13:21:18;27.13;66.28
69208;SHT31;56321;47.662;8.878;2022-07-23T13:23:44;27.22;65.91
69208;SHT31;56321;47.662;8.878;2022-07-23T13:26:09;27.25;67.26
69208;SHT31;56321;47.662;8.878;2022-07-23T13:28:35;27.32;65.80
69208;SHT31;56321;47.662;8.878;2022-07-23T13:31:00;27.30;65.03
69208;SHT31;56321;47.662;8.878;2022-07-23T13:33:26;27.32;67.23
69208;SHT31;56321;47.662;8.878;2022-07-23T13:35:52;27.39;66.75
69208;SHT31;56321;47.662;8.878;2022-07-23T13:38:19;27.45;67.02
69208;SHT31;56321;47.662;8.878;2022-07-23T13:40:47;27.53;67.08
69208;SHT31;56321;47.662;8.878;2022-07-23T13:43:15;27.57;66.52
69208;SHT31;56321;47.662;8.878;2022-07-23T13:45:41;27.63;66.37
69208;SHT31;56321;47.662;8.878;2022-07-23T13:48:08;27.68;64.82
69208;SHT31;56321;47.662;8.878;2022-07-23T13:50:35;27.71;66.57
69208;SHT31;56321;47.662;8.878;2022-07-23T13:53:04;27.73;63.29
69208;SHT31;56321;47.662;8.878;2022-07-23T13:55:31;27.73;64.69
69208;SHT31;56321;47.662;8.878;2022-07-23T13:57:56;27.77;63.93
69208;SHT31;56321;47.662;8.878;2022-07-23T14:00:22;27.81;66.08
69208;SHT31;56321;47.662;8.878;2022-07-23T14:02:47;27.83;64.38
69208;SHT31;56321;47.662;8.878;2022-07-23T14:05:13;27.85;63.27
69208;SHT31;56321;47.662;8.878;2022-07-23T14:07:39;27.87;63.22
69208;SHT31;56321;47.662;8.878;2022-07-23T14:10:06;27.88;63.36
69208;SHT31;56321;47.662;8.878;2022-07-23T14:12:32;27.87;62.80
69208;SHT31;56321;47.662;8.878;2022-07-23T14:14:57;27.85;63.15
69208;SHT31;56321;47.662;8.878;2022-07-23T14:17:22;27.81;61.39
69208;SHT31;56321;47.662;8.878;2022-07-23T14:19:48;27.85;62.75
69208;SHT31;56321;47.662;8.878;2022-07-23T14:22:13;27.91;62.59
69208;SHT31;56321;47.662;8.878;2022-07-23T14:24:39;27.91;61.84
69208;SHT31;56321;47.662;8.878;2022-07-23T14:27:05;27.93;61.24
69208;SHT31;56321;47.662;8.878;2022-07-23T14:29:30;27.87;62.68
69208;SHT31;56321;47.662;8.878;2022-07-23T14:31:57;27.81;61.01
69208;SHT31;56321;47.662;8.878;2022-07-23T14:34:22;27.77;62.73
69208;SHT31;56321;47.662;8.878;2022-07-23T14:36:48;27.73;60.91
69208;SHT31;56321;47.662;8.878;2022-07-23T14:39:13;27.71;62.53
69208;SHT31;56321;47.662;8.878;2022-07-23T14:41:39;27.70;64.33
69208;SHT31;56321;47.662;8.878;2022-07-23T14:44:05;27.70;64.22
69208;SHT31;56321;47.662;8.878;2022-07-23T14:46:30;27.70;62.59
69208;SHT31;56321;47.662;8.878;2022-07-23T14:48:56;27.68;62.72
69208;SHT31;56321;47.662;8.878;2022-07-23T14:51:21;27.64;61.76
69208;SHT31;56321;47.662;8.878;2022-07-23T14:53:47;27.57;61.24
69208;SHT31;56321;47.662;8.878;2022-07-23T14:56:12;27.50;61.61
69208;SHT31;56321;47.662;8.878;2022-07-23T14:58:39;27.45;62.94
69208;SHT31;56321;47.662;8.878;2022-07-23T15:01:04;27.43;63.71
69208;SHT31;56321;47.662;8.878;2022-07-23T15:03:30;27.45;64.61
69208;SHT31;56321;47.662;8.878;2022-07-23T15:05:55;27.47;65.64
69208;SHT31;56321;47.662;8.878;2022-07-23T15:08:21;27.50;64.84
69208;SHT31;56321;47.662;8.878;2022-07-23T15:10:46;27.56;63.70
69208;SHT31;56321;47.662;8.878;2022-07-23T15:13:12;27.57;63.98
69208;SHT31;56321;47.662;8.878;2022-07-23T15:15:37;27.57;63.93
69208;SHT31;56321;47.662;8.878;2022-07-23T15:18:03;27.61;64.66
69208;SHT31;56321;47.662;8.878;2022-07-23T15:20:28;27.61;64.78
69208;SHT31;56321;47.662;8.878;2022-07-23T15:22:54;27.60;64.78
69208;SHT31;56321;47.662;8.878;2022-07-23T15:25:20;27.60;62.73
69208;SHT31;56321;47.662;8.878;2022-07-23T15:27:45;27.60;63.28
69208;SHT31;56321;47.662;8.878;2022-07-23T15:30:11;27.61;63.72
69208;SHT31;56321;47.662;8.878;2022-07-23T15:32:36;27.63;62.28
69208;SHT31;56321;47.662;8.878;2022-07-23T15:35:02;27.61;62.86
69208;SHT31;56321;47.662;8.878;2022-07-23T15:37:30;27.60;62.35
69208;SHT31;56321;47.662;8.878;2022-07-23T15:39:55;27.63;64.52
69208;SHT31;56321;47.662;8.878;2022-07-23T15:42:21;27.67;63.93
69208;SHT31;56321;47.662;8.878;2022-07-23T15:44:46;27.71;63.74
69208;SHT31;56321;47.662;8.878;2022-07-23T15:47:16;27.71;61.82
69208;SHT31;56321;47.662;8.878;2022-07-23T15:49:42;27.64;61.32
69208;SHT31;56321;47.662;8.878;2022-07-23T15:52:07;27.67;62.89
69208;SHT31;56321;47.662;8.878;2022-07-23T15:54:35;27.64;62.03
69208;SHT31;56321;47.662;8.878;2022-07-23T15:57:02;27.64;62.21
69208;SHT31;56321;47.662;8.878;2022-07-23T15:59:28;27.66;61.25
69208;SHT31;56321;47.662;8.878;2022-07-23T16:01:53;27.68;61.90